Time;durP1;ratioP1;P1;durP2;ratioP2;P2;SDS_P1;SDS_P2;PMS_P1;PMS_P2;Temp;Humidity;BMP_temperature;BMP_pressure;BME280_temperature;BME280_humidity;BME280_pressure;Samples;Min_cycle;Max_cycle;Signal;HPM_P1;HPM_P2
2023/11/12 00:00:36;;;;;;;19.73;18.63;;;;;;;;;;5059104;28;20105;-60
2023/11/12 00:03:01;;;;;;;19.75;18.55;;;;;;;;;;5062022;28;20067;-60
2023/11/12 00:05:27;;;;;;;18.38;17.38;;;;;;;;;;5057325;28;20025;-60
2023/11/12 00:07:52;;;;;;;18.90;17.85;;;;;;;;;;5061443;28;20111;-60
2023/11/12 00:10:19;;;;;;;19.02;17.92;;;;;;;;;;5060276;28;20510;-60
2023/11/12 00:12:45;;;;;;;19.00;17.90;;;;;;;;;;5062939;28;20024;-60
2023/11/12 00:15:11;;;;;;;18.63;17.52;;;;;;;;;;5060765;28;20051;-60
2023/11/12 00:17:41;;;;;;;19.98;18.77;;;;;;;;;;5058369;28;20068;-60
2023/11/12 00:20:07;;;;;;;19.15;18.08;;;;;;;;;;5057086;28;20086;-60
2023/11/12 00:22:33;;;;;;;19.13;18.02;;;;;;;;;;5056417;28;20051;-60
2023/11/12 00:24:59;;;;;;;19.08;18.00;;;;;;;;;;5063166;28;20036;-60
2023/11/12 00:27:25;;;;;;;19.92;18.83;;;;;;;;;;5060594;28;20046;-60
2023/11/12 00:29:50;;;;;;;19.25;18.15;;;;;;;;;;5047484;28;20035;-60
2023/11/12 00:32:15;;;;;;;18.70;17.70;;;;;;;;;;5057514;28;20082;-60
2023/11/12 00:34:41;;;;;;;20.42;19.17;;;;;;;;;;5061449;28;20036;-61
2023/11/12 00:37:07;;;;;;;18.48;17.42;;;;;;;;;;5058271;28;20032;-60
2023/11/12 00:39:33;;;;;;;19.60;18.50;;;;;;;;;;5056777;28;20028;-60
2023/11/12 00:42:02;;;;;;;19.38;18.27;;;;;;;;;;5059544;28;20054;-61
2023/11/12 00:44:28;;;;;;;19.52;18.33;;;;;;;;;;5054797;28;20029;-61
2023/11/12 00:46:53;;;;;;;18.25;17.25;;;;;;;;;;5058150;28;20055;-60
2023/11/12 00:49:18;;;;;;;21.73;20.52;;;;;;;;;;5057581;28;20040;-61
2023/11/12 00:51:44;;;;;;;17.95;16.95;;;;;;;;;;5057487;28;20054;-61
2023/11/12 00:54:09;;;;;;;18.60;17.55;;;;;;;;;;5055467;28;20032;-60
2023/11/12 00:56:35;;;;;;;20.23;18.92;;;;;;;;;;5055065;28;20029;-60
2023/11/12 00:59:00;;;;;;;20.10;18.98;;;;;;;;;;5054091;28;20033;-61
2023/11/12 01:01:26;;;;;;;19.70;18.50;;;;;;;;;;5058053;28;20056;-60
2023/11/12 01:03:52;;;;;;;18.77;17.70;;;;;;;;;;5055922;28;20029;-60
2023/11/12 01:06:17;;;;;;;20.38;19.27;;;;;;;;;;5062903;28;20032;-61
2023/11/12 01:08:43;;;;;;;20.52;19.42;;;;;;;;;;5055051;28;20033;-61
2023/11/12 01:11:08;;;;;;;19.23;18.13;;;;;;;;;;5056241;28;20106;-61
2023/11/12 01:13:34;;;;;;;20.23;19.13;;;;;;;;;;5058467;28;20054;-60
2023/11/12 01:16:00;;;;;;;20.83;19.63;;;;;;;;;;5056375;28;20036;-60
2023/11/12 01:18:26;;;;;;;19.38;18.27;;;;;;;;;;5058106;28;20033;-60
2023/11/12 01:20:51;;;;;;;19.33;18.27;;;;;;;;;;5058921;28;20063;-61
2023/11/12 01:23:17;;;;;;;20.15;18.95;;;;;;;;;;5057626;28;20356;-60
2023/11/12 01:25:42;;;;;;;22.45;21.23;;;;;;;;;;5056736;28;20466;-60
2023/11/12 01:28:08;;;;;;;21.02;19.83;;;;;;;;;;5055956;28;20127;-60
2023/11/12 01:30:33;;;;;;;20.55;19.42;;;;;;;;;;5056995;28;20137;-60
2023/11/12 01:32:59;;;;;;;20.60;19.48;;;;;;;;;;5053287;28;20124;-60
2023/11/12 01:35:25;;;;;;;20.83;19.73;;;;;;;;;;5056445;28;20041;-60
2023/11/12 01:37:50;;;;;;;21.08;19.88;;;;;;;;;;5055724;28;20090;-60
2023/11/12 01:40:16;;;;;;;22.30;21.08;;;;;;;;;;5059614;28;20362;-61
2023/11/12 01:42:45;;;;;;;22.25;21.02;;;;;;;;;;5054610;28;20033;-60
2023/11/12 01:45:11;;;;;;;23.98;22.58;;;;;;;;;;5058767;28;20029;-60
2023/11/12 01:47:38;;;;;;;24.23;22.88;;;;;;;;;;5053644;28;20040;-60
2023/11/12 01:50:09;;;;;;;22.13;20.92;;;;;;;;;;5057722;28;20044;-61
2023/11/12 01:52:37;;;;;;;22.50;21.30;;;;;;;;;;5054290;28;20128;-60
2023/11/12 01:55:03;;;;;;;22.52;21.33;;;;;;;;;;5055507;28;20040;-60
2023/11/12 01:57:31;;;;;;;24.05;22.73;;;;;;;;;;5053022;28;20491;-60
2023/11/12 01:59:57;;;;;;;24.75;23.33;;;;;;;;;;5054537;28;20047;-60
2023/11/12 02:02:24;;;;;;;25.42;24.02;;;;;;;;;;5058791;28;20033;-60
2023/11/12 02:04:49;;;;;;;24.48;23.08;;;;;;;;;;5060374;28;20066;-60
2023/11/12 02:07:14;;;;;;;24.15;22.80;;;;;;;;;;5056236;28;20048;-60
2023/11/12 02:09:41;;;;;;;25.35;23.95;;;;;;;;;;5055196;28;20041;-61
2023/11/12 02:12:07;;;;;;;23.27;21.98;;;;;;;;;;5058363;28;20028;-60
2023/11/12 02:14:32;;;;;;;26.02;24.55;;;;;;;;;;5054960;28;20046;-60
2023/11/12 02:16:59;;;;;;;24.17;22.88;;;;;;;;;;5058979;28;20043;-60
2023/11/12 02:19:28;;;;;;;26.40;24.95;;;;;;;;;;5060405;28;20539;-60
2023/11/12 02:21:55;;;;;;;25.42;23.85;;;;;;;;;;5056811;28;20123;-60
2023/11/12 02:24:22;;;;;;;24.85;23.50;;;;;;;;;;5057298;28;20105;-60
2023/11/12 02:26:48;;;;;;;25.02;23.65;;;;;;;;;;5058162;28;20359;-60
2023/11/12 02:29:15;;;;;;;25.55;23.15;;;;;;;;;;5055218;28;20028;-60
2023/11/12 02:31:41;;;;;;;26.83;25.08;;;;;;;;;;5057113;28;20033;-60
2023/11/12 02:34:06;;;;;;;25.20;23.80;;;;;;;;;;5057970;28;20029;-60
2023/11/12 02:36:34;;;;;;;23.27;21.95;;;;;;;;;;5050500;28;20367;-60
2023/11/12 02:39:00;;;;;;;22.50;21.20;;;;;;;;;;5060124;28;20059;-60
2023/11/12 02:41:25;;;;;;;23.40;22.05;;;;;;;;;;5063733;28;20072;-60
2023/11/12 02:43:52;;;;;;;23.42;22.13;;;;;;;;;;5065692;28;20040;-60
2023/11/12 02:46:17;;;;;;;21.58;20.38;;;;;;;;;;5061311;28;20037;-60
2023/11/12 02:49:00;;;;;;;22.75;21.48;;;;;;;;;;5060180;28;20768;-60
2023/11/12 02:51:26;;;;;;;22.02;20.83;;;;;;;;;;5061680;28;20136;-60
2023/11/12 02:53:54;;;;;;;21.70;20.40;;;;;;;;;;5058364;28;20112;-60
2023/11/12 02:56:22;;;;;;;21.20;20.02;;;;;;;;;;5061743;28;20059;-60
2023/11/12 02:58:48;;;;;;;22.65;21.35;;;;;;;;;;5059792;28;20107;-60
2023/11/12 03:01:14;;;;;;;20.42;19.23;;;;;;;;;;5062057;28;20129;-60
2023/11/12 03:03:39;;;;;;;21.30;20.15;;;;;;;;;;5062611;28;20119;-60
2023/11/12 03:06:05;;;;;;;21.83;20.63;;;;;;;;;;5061958;28;20102;-60
2023/11/12 03:08:30;;;;;;;21.08;19.88;;;;;;;;;;5061486;28;20032;-60
2023/11/12 03:10:56;;;;;;;21.80;20.60;;;;;;;;;;5060683;28;20043;-60
2023/11/12 03:13:22;;;;;;;21.65;20.45;;;;;;;;;;5059319;28;20035;-60
2023/11/12 03:15:47;;;;;;;23.55;21.25;;;;;;;;;;5059412;28;20048;-60
2023/11/12 03:18:13;;;;;;;21.42;20.23;;;;;;;;;;5059989;28;20124;-60
2023/11/12 03:20:38;;;;;;;22.17;20.90;;;;;;;;;;5060523;28;20450;-60
2023/11/12 03:23:03;;;;;;;22.42;21.13;;;;;;;;;;5059300;28;20124;-60
2023/11/12 03:25:29;;;;;;;21.45;20.25;;;;;;;;;;5060219;28;20062;-60
2023/11/12 03:27:54;;;;;;;24.02;22.63;;;;;;;;;;5060766;28;20037;-60
2023/11/12 03:30:19;;;;;;;23.08;21.77;;;;;;;;;;5061174;28;20033;-60
2023/11/12 03:32:45;;;;;;;22.52;21.33;;;;;;;;;;5063043;28;20036;-60
2023/11/12 03:35:11;;;;;;;23.83;22.42;;;;;;;;;;5064960;28;20038;-60
2023/11/12 03:37:37;;;;;;;23.52;22.23;;;;;;;;;;5064614;28;20024;-60
2023/11/12 03:40:04;;;;;;;23.77;22.27;;;;;;;;;;5064518;28;20428;-60
2023/11/12 03:42:29;;;;;;;25.35;23.95;;;;;;;;;;5062954;28;20029;-60
2023/11/12 03:44:56;;;;;;;22.55;21.25;;;;;;;;;;5060974;28;20486;-60
2023/11/12 03:47:23;;;;;;;23.92;22.63;;;;;;;;;;5061860;28;20032;-60
2023/11/12 03:49:48;;;;;;;22.25;21.05;;;;;;;;;;5061044;28;20025;-60
2023/11/12 03:52:14;;;;;;;22.50;21.30;;;;;;;;;;5061215;28;20469;-60
2023/11/12 03:54:40;;;;;;;23.13;21.73;;;;;;;;;;5062819;28;20060;-60
2023/11/12 03:57:05;;;;;;;22.10;20.80;;;;;;;;;;5058841;28;20149;-61
2023/11/12 03:59:31;;;;;;;20.38;19.27;;;;;;;;;;5061790;28;20593;-61
2023/11/12 04:01:56;;;;;;;22.08;20.83;;;;;;;;;;5058605;28;20062;-60
2023/11/12 04:04:22;;;;;;;21.45;20.25;;;;;;;;;;5060987;28;20060;-60
2023/11/12 04:06:47;;;;;;;21.10;19.90;;;;;;;;;;5061139;28;20040;-60
2023/11/12 04:09:13;;;;;;;21.80;20.60;;;;;;;;;;5059498;28;20025;-60
2023/11/12 04:11:40;;;;;;;21.08;19.88;;;;;;;;;;5062149;28;20036;-60
2023/11/12 04:14:07;;;;;;;22.17;20.70;;;;;;;;;;5062255;28;20651;-60
2023/11/12 04:16:34;;;;;;;22.48;21.15;;;;;;;;;;5060326;28;20109;-60
2023/11/12 04:19:03;;;;;;;21.98;20.60;;;;;;;;;;5062607;28;20041;-60
2023/11/12 04:21:30;;;;;;;19.77;18.67;;;;;;;;;;5056105;28;20461;-60
2023/11/12 04:23:56;;;;;;;21.85;20.45;;;;;;;;;;5063186;28;20113;-60
2023/11/12 04:26:22;;;;;;;20.25;18.83;;;;;;;;;;5063053;28;20102;-60
2023/11/12 04:28:47;;;;;;;20.75;19.60;;;;;;;;;;5059358;28;20032;-61
2023/11/12 04:31:13;;;;;;;20.95;19.77;;;;;;;;;;5063201;28;20024;-60
2023/11/12 04:33:38;;;;;;;21.08;19.88;;;;;;;;;;5061222;28;20032;-60
2023/11/12 04:36:04;;;;;;;20.33;19.00;;;;;;;;;;5056453;28;20117;-60
2023/11/12 04:38:29;;;;;;;19.55;18.45;;;;;;;;;;5060488;28;20473;-60
2023/11/12 04:40:54;;;;;;;19.27;18.17;;;;;;;;;;5059058;28;20530;-60
2023/11/12 04:43:20;;;;;;;19.63;18.42;;;;;;;;;;5055549;28;20458;-60
2023/11/12 04:45:46;;;;;;;19.42;18.33;;;;;;;;;;5059851;28;20074;-60
2023/11/12 04:48:11;;;;;;;20.27;19.08;;;;;;;;;;5059841;28;20450;-60
2023/11/12 04:50:37;;;;;;;19.85;18.67;;;;;;;;;;5062579;28;20033;-60
2023/11/12 04:53:07;;;;;;;20.05;18.92;;;;;;;;;;5059228;28;20478;-60
2023/11/12 04:55:32;;;;;;;20.23;18.90;;;;;;;;;;5060092;28;20036;-59
2023/11/12 04:57:58;;;;;;;19.45;18.35;;;;;;;;;;5059163;28;20471;-60
2023/11/12 05:00:23;;;;;;;19.58;18.48;;;;;;;;;;5061246;28;20040;-61
2023/11/12 05:02:49;;;;;;;20.73;19.52;;;;;;;;;;5057527;28;20624;-60
2023/11/12 05:05:15;;;;;;;19.77;18.67;;;;;;;;;;5060944;28;20036;-60
2023/11/12 05:07:40;;;;;;;19.27;18.15;;;;;;;;;;5056652;28;20082;-60
2023/11/12 05:10:08;;;;;;;19.08;18.00;;;;;;;;;;5060132;28;20044;-60
2023/11/12 05:12:34;;;;;;;19.05;17.95;;;;;;;;;;5060363;28;20243;-60
2023/11/12 05:15:00;;;;;;;18.92;17.85;;;;;;;;;;5056895;28;20436;-60
2023/11/12 05:17:26;;;;;;;19.50;18.40;;;;;;;;;;5061210;28;20041;-60
2023/11/12 05:19:51;;;;;;;20.05;18.92;;;;;;;;;;5056107;28;20039;-61
2023/11/12 05:22:17;;;;;;;18.95;17.85;;;;;;;;;;5058483;28;20616;-60
2023/11/12 05:24:42;;;;;;;20.52;19.15;;;;;;;;;;5058603;28;20239;-60
2023/11/12 05:27:08;;;;;;;19.17;18.08;;;;;;;;;;5057866;28;20028;-60
2023/11/12 05:29:33;;;;;;;19.48;18.38;;;;;;;;;;5057710;28;20029;-60
2023/11/12 05:31:58;;;;;;;20.83;19.52;;;;;;;;;;5056763;28;20033;-60
2023/11/12 05:34:24;;;;;;;20.30;19.20;;;;;;;;;;5058077;28;20512;-60
2023/11/12 05:36:49;;;;;;;20.27;19.10;;;;;;;;;;5059325;28;20115;-60
2023/11/12 05:39:15;;;;;;;19.88;18.75;;;;;;;;;;5057011;28;20905;-60
2023/11/12 05:41:41;;;;;;;28.05;19.38;;;;;;;;;;5054750;28;20037;-60
2023/11/12 05:44:07;;;;;;;19.45;18.38;;;;;;;;;;5055247;28;20059;-60
2023/11/12 05:46:32;;;;;;;20.67;19.45;;;;;;;;;;5057921;28;20505;-60
2023/11/12 05:48:57;;;;;;;21.48;20.17;;;;;;;;;;5057597;28;20082;-60
2023/11/12 05:51:23;;;;;;;19.75;18.45;;;;;;;;;;5053497;28;20033;-60
2023/11/12 05:53:48;;;;;;;19.13;18.02;;;;;;;;;;5061785;28;20089;-60
2023/11/12 05:56:14;;;;;;;20.63;19.42;;;;;;;;;;5057725;28;20025;-60
2023/11/12 05:58:39;;;;;;;21.38;19.80;;;;;;;;;;5063493;28;20573;-60
2023/11/12 06:01:05;;;;;;;19.50;18.40;;;;;;;;;;5069891;28;20784;-62
2023/11/12 06:03:30;;;;;;;19.58;18.25;;;;;;;;;;5059123;28;20032;-62
2023/11/12 06:05:55;;;;;;;19.98;18.58;;;;;;;;;;5059121;28;20494;-61
2023/11/12 06:08:22;;;;;;;18.95;17.85;;;;;;;;;;5060498;28;20468;-61
2023/11/12 06:10:48;;;;;;;19.70;18.60;;;;;;;;;;5059323;28;20036;-61
2023/11/12 06:13:14;;;;;;;20.40;19.15;;;;;;;;;;5059066;28;20116;-62
2023/11/12 06:15:40;;;;;;;18.92;17.83;;;;;;;;;;5064159;28;20735;-62
2023/11/12 06:18:06;;;;;;;20.17;18.88;;;;;;;;;;5061560;28;20127;-61
2023/11/12 06:20:31;;;;;;;19.30;18.15;;;;;;;;;;5064259;28;20115;-61
2023/11/12 06:22:57;;;;;;;20.98;19.67;;;;;;;;;;5061313;28;20032;-61
2023/11/12 06:25:23;;;;;;;20.48;19.27;;;;;;;;;;5063149;28;20522;-62
2023/11/12 06:27:49;;;;;;;21.38;19.00;;;;;;;;;;5065303;28;20031;-61
2023/11/12 06:30:15;;;;;;;19.45;18.35;;;;;;;;;;5063835;28;20087;-61
2023/11/12 06:32:41;;;;;;;19.92;18.83;;;;;;;;;;5062283;28;20457;-61
2023/11/12 06:35:07;;;;;;;21.55;20.35;;;;;;;;;;5063434;28;20107;-61
2023/11/12 06:37:32;;;;;;;22.38;20.95;;;;;;;;;;5061153;28;20066;-61
2023/11/12 06:39:57;;;;;;;22.13;20.80;;;;;;;;;;5062510;28;20040;-60
2023/11/12 06:42:24;;;;;;;19.70;18.60;;;;;;;;;;5061045;28;20881;-61
2023/11/12 06:44:50;;;;;;;21.60;20.30;;;;;;;;;;5061408;28;20039;-61
2023/11/12 06:47:15;;;;;;;20.98;19.67;;;;;;;;;;5062086;28;20032;-61
2023/11/12 06:49:41;;;;;;;20.15;18.85;;;;;;;;;;5061219;28;20469;-61
2023/11/12 06:52:07;;;;;;;21.25;19.90;;;;;;;;;;5059892;28;20150;-60
2023/11/12 06:54:32;;;;;;;21.45;20.15;;;;;;;;;;5059618;28;20028;-61
2023/11/12 06:56:59;;;;;;;20.38;19.17;;;;;;;;;;5059176;28;20689;-61
2023/11/12 06:59:25;;;;;;;21.27;19.98;;;;;;;;;;5061862;28;20068;-61
2023/11/12 07:01:50;;;;;;;20.33;19.17;;;;;;;;;;5061445;28;20075;-60
2023/11/12 07:04:16;;;;;;;20.83;19.63;;;;;;;;;;5062419;28;20040;-61
2023/11/12 07:06:42;;;;;;;20.42;19.27;;;;;;;;;;5057820;28;20036;-60
2023/11/12 07:09:08;;;;;;;22.08;20.77;;;;;;;;;;5062196;28;20024;-61
2023/11/12 07:11:33;;;;;;;20.00;18.83;;;;;;;;;;5062732;28;20040;-60
2023/11/12 07:13:59;;;;;;;20.33;19.13;;;;;;;;;;5061214;28;21248;-60
2023/11/12 07:16:25;;;;;;;20.25;19.05;;;;;;;;;;5061499;28;20044;-61
2023/11/12 07:18:50;;;;;;;21.80;20.55;;;;;;;;;;5062056;28;20128;-61
2023/11/12 07:21:30;;;;;;;20.92;19.73;;;;;;;;;;5055540;28;20362;-61
2023/11/12 07:23:56;;;;;;;20.02;18.83;;;;;;;;;;5063707;28;20116;-61
2023/11/12 07:26:23;;;;;;;21.52;20.13;;;;;;;;;;5059500;28;20094;-61
2023/11/12 07:28:48;;;;;;;21.30;20.02;;;;;;;;;;5061683;28;20040;-61
2023/11/12 07:31:14;;;;;;;22.10;20.30;;;;;;;;;;5058542;28;20029;-60
2023/11/12 07:33:39;;;;;;;21.27;19.88;;;;;;;;;;5059162;28;20038;-60
2023/11/12 07:36:06;;;;;;;21.05;19.75;;;;;;;;;;5060721;28;20074;-60
2023/11/12 07:38:31;;;;;;;20.75;19.52;;;;;;;;;;5059192;28;20057;-60
2023/11/12 07:40:57;;;;;;;21.25;19.95;;;;;;;;;;5063768;28;20417;-60
2023/11/12 07:43:22;;;;;;;19.08;17.98;;;;;;;;;;5059838;28;20120;-69
2023/11/12 07:45:48;;;;;;;19.95;18.77;;;;;;;;;;5059008;28;20040;-66
2023/11/12 07:48:14;;;;;;;21.08;19.77;;;;;;;;;;5059186;28;20565;-68
2023/11/12 07:50:41;;;;;;;21.27;20.05;;;;;;;;;;5058798;28;20093;-68
2023/11/12 07:53:07;;;;;;;19.60;18.50;;;;;;;;;;5060425;28;20106;-67
2023/11/12 07:55:32;;;;;;;21.98;20.40;;;;;;;;;;5057383;28;20028;-68
2023/11/12 07:57:57;;;;;;;20.55;19.35;;;;;;;;;;5060971;28;20108;-69
2023/11/12 08:00:23;;;;;;;20.80;19.50;;;;;;;;;;5060270;28;20021;-68
2023/11/12 08:02:48;;;;;;;20.95;19.65;;;;;;;;;;5058538;28;20020;-68
2023/11/12 08:05:15;;;;;;;21.42;20.02;;;;;;;;;;5057042;28;20032;-67
2023/11/12 08:07:41;;;;;;;21.27;19.88;;;;;;;;;;5055734;28;20536;-67
2023/11/12 08:10:08;;;;;;;20.23;19.02;;;;;;;;;;5056796;28;20089;-68
2023/11/12 08:12:35;;;;;;;47.42;42.83;;;;;;;;;;5059532;28;20094;-69
2023/11/12 08:15:00;;;;;;;29.20;26.85;;;;;;;;;;5057218;28;20021;-68
2023/11/12 08:17:26;;;;;;;21.58;20.33;;;;;;;;;;5059317;28;20115;-69
2023/11/12 08:19:52;;;;;;;21.73;20.42;;;;;;;;;;5057622;28;20600;-69
2023/11/12 08:22:18;;;;;;;21.48;20.02;;;;;;;;;;5055360;28;20037;-69
2023/11/12 08:24:43;;;;;;;21.75;20.45;;;;;;;;;;5059983;28;20043;-69
2023/11/12 08:27:08;;;;;;;19.75;18.55;;;;;;;;;;5058264;28;20044;-69
2023/11/12 08:29:35;;;;;;;21.40;20.17;;;;;;;;;;5058700;28;20028;-68
2023/11/12 08:32:00;;;;;;;20.42;19.20;;;;;;;;;;5057458;28;20044;-68
2023/11/12 08:34:26;;;;;;;21.13;19.92;;;;;;;;;;5061543;28;20025;-69
2023/11/12 08:36:52;;;;;;;20.80;19.60;;;;;;;;;;5059085;28;20120;-68
2023/11/12 08:39:17;;;;;;;21.30;19.40;;;;;;;;;;5060279;28;20031;-68
2023/11/12 08:41:45;;;;;;;20.63;19.33;;;;;;;;;;5056599;28;20426;-67
2023/11/12 08:44:11;;;;;;;20.23;19.02;;;;;;;;;;5061067;28;20363;-68
2023/11/12 08:46:36;;;;;;;22.40;21.05;;;;;;;;;;5059143;28;20063;-59
2023/11/12 08:49:04;;;;;;;21.88;20.58;;;;;;;;;;5056481;28;20037;-60
2023/11/12 08:51:30;;;;;;;20.35;19.15;;;;;;;;;;5054482;28;20051;-59
2023/11/12 08:53:55;;;;;;;22.02;20.73;;;;;;;;;;5059302;28;20115;-59
2023/11/12 08:56:20;;;;;;;20.90;19.70;;;;;;;;;;5056752;28;20360;-60
2023/11/12 08:58:46;;;;;;;21.85;20.52;;;;;;;;;;5057624;28;20041;-59
2023/11/12 09:01:12;;;;;;;21.38;20.08;;;;;;;;;;5060206;28;20036;-62
2023/11/12 09:03:38;;;;;;;22.27;20.90;;;;;;;;;;5057684;28;20033;-59
2023/11/12 09:06:04;;;;;;;20.15;19.05;;;;;;;;;;5060775;28;20359;-61
2023/11/12 09:08:30;;;;;;;20.83;19.63;;;;;;;;;;5054478;28;20123;-60
2023/11/12 09:10:55;;;;;;;21.65;20.35;;;;;;;;;;5058651;28;20906;-60
2023/11/12 09:13:21;;;;;;;22.05;20.75;;;;;;;;;;5056872;28;20087;-60
2023/11/12 09:15:47;;;;;;;21.98;20.75;;;;;;;;;;5060959;28;20039;-59
2023/11/12 09:18:12;;;;;;;23.20;21.85;;;;;;;;;;5056182;28;20459;-59
2023/11/12 09:20:38;;;;;;;20.13;18.83;;;;;;;;;;5054376;28;20127;-59
2023/11/12 09:23:03;;;;;;;20.15;18.95;;;;;;;;;;5056644;28;20147;-63
2023/11/12 09:25:29;;;;;;;19.08;17.92;;;;;;;;;;5055669;28;20394;-62
2023/11/12 09:27:55;;;;;;;21.02;19.83;;;;;;;;;;5066322;28;20032;-59
2023/11/12 09:30:21;;;;;;;21.30;20.00;;;;;;;;;;5055475;28;20029;-60
2023/11/12 09:32:47;;;;;;;22.65;20.65;;;;;;;;;;5061598;28;21160;-60
2023/11/12 09:35:14;;;;;;;20.42;19.23;;;;;;;;;;5057827;28;20094;-60
2023/11/12 09:37:40;;;;;;;20.10;18.80;;;;;;;;;;5053807;28;20052;-60
2023/11/12 09:40:10;;;;;;;20.15;18.95;;;;;;;;;;5056343;28;20033;-60
2023/11/12 09:42:38;;;;;;;20.13;19.02;;;;;;;;;;5062691;28;20143;-60
2023/11/12 09:45:05;;;;;;;21.83;20.52;;;;;;;;;;5061060;28;20093;-60
2023/11/12 09:47:53;;;;;;;21.98;20.65;;;;;;;;;;5060418;28;20046;-60
2023/11/12 09:50:20;;;;;;;22.00;20.60;;;;;;;;;;5058066;28;20054;-60
2023/11/12 09:52:46;;;;;;;22.45;21.05;;;;;;;;;;5060004;28;20025;-60
2023/11/12 09:55:17;;;;;;;23.70;21.75;;;;;;;;;;5060073;28;20055;-60
2023/11/12 09:57:43;;;;;;;21.23;19.83;;;;;;;;;;5057932;28;20037;-60
2023/11/12 10:00:12;;;;;;;19.95;18.65;;;;;;;;;;5058125;28;20045;-60
2023/11/12 10:02:38;;;;;;;20.50;19.13;;;;;;;;;;5056817;28;20033;-61
2023/11/12 10:05:10;;;;;;;21.30;20.10;;;;;;;;;;5063848;28;20043;-60
2023/11/12 10:07:36;;;;;;;19.25;18.10;;;;;;;;;;5057773;28;20032;-60
2023/11/12 10:10:20;;;;;;;20.63;18.83;;;;;;;;;;5057560;28;20036;-60
2023/11/12 10:12:46;;;;;;;22.83;21.10;;;;;;;;;;5054860;28;20028;-60
2023/11/12 10:15:11;;;;;;;21.95;20.55;;;;;;;;;;5058448;28;20037;-61
2023/11/12 10:17:47;;;;;;;21.40;20.10;;;;;;;;;;5061044;28;20028;-61
2023/11/12 10:20:40;;;;;;;21.00;19.67;;;;;;;;;;5057322;28;20041;-61
2023/11/12 10:23:18;;;;;;;20.02;18.83;;;;;;;;;;5058004;28;20048;-62
2023/11/12 10:25:47;;;;;;;21.40;20.00;;;;;;;;;;5059471;28;20365;-61
2023/11/12 10:28:13;;;;;;;20.33;19.15;;;;;;;;;;5057245;28;20049;-62
2023/11/12 10:30:39;;;;;;;21.17;19.73;;;;;;;;;;5057398;28;20025;-62
2023/11/12 10:33:15;;;;;;;21.13;19.83;;;;;;;;;;5057610;28;20413;-62
2023/11/12 10:35:41;;;;;;;23.50;22.00;;;;;;;;;;5062806;28;20037;-62
2023/11/12 10:38:06;;;;;;;22.55;21.25;;;;;;;;;;5054659;28;20037;-62
2023/11/12 10:40:32;;;;;;;22.92;21.48;;;;;;;;;;5065506;28;20044;-61
2023/11/12 10:43:07;;;;;;;22.83;21.33;;;;;;;;;;5057226;28;20437;-63
2023/11/12 10:45:35;;;;;;;23.88;22.48;;;;;;;;;;5058856;28;20025;-63
2023/11/12 10:48:06;;;;;;;23.48;22.15;;;;;;;;;;5058593;28;20555;-63
2023/11/12 10:50:33;;;;;;;23.52;22.15;;;;;;;;;;5059135;28;20029;-62
2023/11/12 10:52:59;;;;;;;25.25;23.75;;;;;;;;;;5061806;28;20101;-63
2023/11/12 10:55:25;;;;;;;26.70;25.05;;;;;;;;;;5059153;28;20433;-63
2023/11/12 10:57:52;;;;;;;26.65;25.15;;;;;;;;;;5060191;28;20033;-62
2023/11/12 11:00:22;;;;;;;27.88;26.20;;;;;;;;;;5058008;28;20024;-62
2023/11/12 11:02:49;;;;;;;30.00;28.30;;;;;;;;;;5061485;28;20029;-62
2023/11/12 11:05:18;;;;;;;23.73;22.25;;;;;;;;;;5062727;28;20068;-62
2023/11/12 11:07:47;;;;;;;25.58;23.98;;;;;;;;;;5062433;28;20603;-63
2023/11/12 11:10:12;;;;;;;26.83;25.15;;;;;;;;;;5060136;28;20111;-62
2023/11/12 11:12:39;;;;;;;30.25;27.88;;;;;;;;;;5063264;28;20399;-62
2023/11/12 11:15:42;;;;;;;27.92;26.02;;;;;;;;;;5061533;28;20051;-62
2023/11/12 11:18:31;;;;;;;25.55;23.70;;;;;;;;;;5058453;28;20040;-62
2023/11/12 11:21:17;;;;;;;26.63;25.00;;;;;;;;;;5062069;28;20033;-63
2023/11/12 11:23:49;;;;;;;24.88;23.45;;;;;;;;;;5061280;28;20385;-62
2023/11/12 11:26:24;;;;;;;27.27;24.63;;;;;;;;;;5058395;28;20023;-62
2023/11/12 11:29:05;;;;;;;25.17;23.67;;;;;;;;;;5062053;28;20029;-62
2023/11/12 11:31:35;;;;;;;26.02;24.42;;;;;;;;;;5061914;28;20036;-62
2023/11/12 11:34:03;;;;;;;27.38;25.77;;;;;;;;;;5067402;28;20032;-62
2023/11/12 11:36:29;;;;;;;25.38;23.88;;;;;;;;;;5062659;28;20071;-62
2023/11/12 11:39:10;;;;;;;24.42;23.02;;;;;;;;;;5062336;28;20056;-61
2023/11/12 11:41:42;;;;;;;21.92;20.63;;;;;;;;;;5057037;28;20070;-62
2023/11/12 11:44:37;;;;;;;23.35;22.02;;;;;;;;;;5061637;28;20028;-62
2023/11/12 11:47:05;;;;;;;23.65;21.52;;;;;;;;;;5060266;28;20118;-62
2023/11/12 11:49:31;;;;;;;23.63;22.33;;;;;;;;;;5063482;28;20426;-62
2023/11/12 11:52:00;;;;;;;23.45;21.88;;;;;;;;;;5059806;28;20035;-62
2023/11/12 11:54:25;;;;;;;23.55;22.25;;;;;;;;;;5062147;28;20075;-62
2023/11/12 11:56:52;;;;;;;24.52;23.13;;;;;;;;;;5059288;28;20055;-61
2023/11/12 11:59:18;;;;;;;22.90;21.60;;;;;;;;;;5061979;28;20440;-62
2023/11/12 12:01:47;;;;;;;23.95;22.55;;;;;;;;;;5059328;28;20386;-62
2023/11/12 12:04:14;;;;;;;23.15;21.85;;;;;;;;;;5061082;28;20021;-62
2023/11/12 12:06:44;;;;;;;23.02;21.70;;;;;;;;;;5064167;28;20424;-62
2023/11/12 12:09:17;;;;;;;23.45;21.83;;;;;;;;;;5063011;28;20078;-62
2023/11/12 12:11:46;;;;;;;22.83;21.42;;;;;;;;;;5065126;28;20052;-62
2023/11/12 12:14:15;;;;;;;23.88;22.58;;;;;;;;;;5043577;28;20059;-62
2023/11/12 12:16:42;;;;;;;23.25;21.85;;;;;;;;;;5061692;28;20131;-62
2023/11/12 12:19:13;;;;;;;20.85;19.65;;;;;;;;;;5063800;28;20048;-62
2023/11/12 12:21:47;;;;;;;22.92;21.63;;;;;;;;;;5063838;28;20250;-61
2023/11/12 12:24:12;;;;;;;24.38;22.73;;;;;;;;;;5061627;28;20424;-61
2023/11/12 12:26:39;;;;;;;24.45;23.05;;;;;;;;;;5060428;28;20044;-61
2023/11/12 12:29:22;;;;;;;23.33;22.02;;;;;;;;;;5060632;28;20029;-61
2023/11/12 12:31:49;;;;;;;24.13;22.60;;;;;;;;;;5060411;28;20028;-62
2023/11/12 12:34:16;;;;;;;23.63;22.27;;;;;;;;;;5054676;28;20032;-62
2023/11/12 12:37:09;;;;;;;24.80;23.30;;;;;;;;;;5061237;28;20119;-61
2023/11/12 12:40:03;;;;;;;23.85;22.55;;;;;;;;;;5060360;28;20479;-62
2023/11/12 12:42:30;;;;;;;24.20;22.80;;;;;;;;;;5054749;28;20033;-61
2023/11/12 12:44:59;;;;;;;27.05;25.55;;;;;;;;;;5060022;28;20040;-63
2023/11/12 12:47:29;;;;;;;23.98;22.67;;;;;;;;;;5058334;28;20036;-63
2023/11/12 12:49:54;;;;;;;23.48;22.08;;;;;;;;;;5061454;28;20040;-63
2023/11/12 12:52:21;;;;;;;24.25;22.95;;;;;;;;;;5063128;28;20028;-64
2023/11/12 12:54:47;;;;;;;24.52;23.23;;;;;;;;;;5060996;28;20098;-63
2023/11/12 12:57:12;;;;;;;24.15;22.75;;;;;;;;;;5061694;28;20032;-63
2023/11/12 12:59:38;;;;;;;24.83;23.40;;;;;;;;;;5058987;28;20387;-63
2023/11/12 13:02:03;;;;;;;24.73;23.30;;;;;;;;;;5063192;28;20036;-63
2023/11/12 13:04:29;;;;;;;25.42;24.02;;;;;;;;;;5059828;28;20033;-63
2023/11/12 13:07:00;;;;;;;25.42;23.98;;;;;;;;;;5053657;28;20071;-63
2023/11/12 13:09:27;;;;;;;24.55;23.15;;;;;;;;;;5058884;28;20102;-63
2023/11/12 13:11:57;;;;;;;24.60;22.65;;;;;;;;;;5061919;28;20036;-62
2023/11/12 13:14:24;;;;;;;;;;;;;;;;;;5048032;28;20032;-61
2023/11/12 13:16:50;;;;;;;22.33;21.05;;;;;;;;;;5058287;28;19947;-61
2023/11/12 13:19:16;;;;;;;23.23;21.92;;;;;;;;;;5057222;28;20120;-61
2023/11/12 13:21:44;;;;;;;21.85;20.65;;;;;;;;;;5054186;28;20036;-62
2023/11/12 13:24:11;;;;;;;22.33;21.02;;;;;;;;;;5057868;28;20032;-61
2023/11/12 13:26:37;;;;;;;26.20;24.58;;;;;;;;;;5057799;28;20056;-61
2023/11/12 13:29:05;;;;;;;23.00;21.70;;;;;;;;;;5059893;28;20102;-62
2023/11/12 13:31:31;;;;;;;22.85;21.55;;;;;;;;;;5059725;28;20032;-63
2023/11/12 13:33:58;;;;;;;23.75;22.38;;;;;;;;;;5058481;28;20086;-63
2023/11/12 13:36:24;;;;;;;24.60;22.75;;;;;;;;;;5057601;28;20059;-63
2023/11/12 13:38:52;;;;;;;22.17;20.98;;;;;;;;;;5059225;28;20027;-62
2023/11/12 13:41:22;;;;;;;25.75;24.25;;;;;;;;;;5059765;28;20028;-63
2023/11/12 13:43:48;;;;;;;23.43;22.13;;;;;;;;;;5057269;28;20035;-62
2023/11/12 13:46:15;;;;;;;22.98;21.67;;;;;;;;;;5057278;28;20081;-62
2023/11/12 13:48:40;;;;;;;23.90;22.50;;;;;;;;;;5059806;28;20032;-63
2023/11/12 13:51:09;;;;;;;24.88;23.48;;;;;;;;;;5057454;28;20047;-62
2023/11/12 13:53:35;;;;;;;24.50;22.65;;;;;;;;;;5057021;28;20068;-62
2023/11/12 13:56:01;;;;;;;22.35;21.08;;;;;;;;;;5055062;28;20041;-62
2023/11/12 13:58:26;;;;;;;22.00;20.80;;;;;;;;;;5057482;28;20036;-62
2023/11/12 14:00:52;;;;;;;23.50;21.95;;;;;;;;;;5063256;28;20649;-62
2023/11/12 14:03:17;;;;;;;22.98;21.63;;;;;;;;;;5061051;28;20598;-62
2023/11/12 14:05:44;;;;;;;23.95;22.55;;;;;;;;;;5060569;28;20469;-62
2023/11/12 14:08:09;;;;;;;23.67;22.27;;;;;;;;;;5062191;28;20033;-62
2023/11/12 14:10:35;;;;;;;24.15;22.65;;;;;;;;;;5057030;28;20043;-62
2023/11/12 14:13:02;;;;;;;24.17;22.67;;;;;;;;;;5061275;28;20036;-62
2023/11/12 14:15:29;;;;;;;25.58;24.13;;;;;;;;;;5063269;28;20119;-62
2023/11/12 14:17:54;;;;;;;25.25;23.85;;;;;;;;;;5066218;28;20056;-62